LSZBLZIB

Guest
Details From LSZB - Bern-belp
To LZIB - Bratislava Mr Stefanik
Flight Number -
Tags Generated
Created
Modified
Stats Distance 400 nm / 741 km
Max Altitude 0 ft / 0 m
Waypoints 3
Social Downloads 2
Likes 0
Share VATSIM

Download

Looking for another format? Having issues loading an existing format? Contact us
Advertisement - Login to hide

Notes

Generated

Route

LSZB WW411 LZIB

ID Type Via Altitude Latitude Longitude Leg Dist Tot Dist Heading (true) Name
O LSZB APT - 0 ft / 0 m 46.91416˚ 7.49449˚ - 0 nm - -
WW411 FIX - 0 ft / 0 m 48.12667˚ 16.70500˚ 380 nm 380 nm 76° / 82° -
O LZIB APT - 0 ft / 0 m 48.16081˚ 17.19942˚ 19 nm 400 nm 84° / 84° -

Altitude Profile

Advertisement - Login to hide

Weather


0- 5 10 15 20 25 30 35+ Temperature / ° C

Clouds and Precipitation
Forecast for 2017-12-17 18:00 UTC. Updated 41 minutes ago

Ground ~20,000 ft ~40,000 ft Winds

LSZB

Details ICAO LSZB (BRN)
Name Bern-Belp
Region Switzerland
Timezone Europe/Zurich (UTC+1.0)
Stats Elevation 1,672 ft / 510 m (AMSL)
Location 46.912547° 7.497672°
Runways 3
Magnetic Variation 2.083° E

METAR

LSZB 171320Z 18005KT 9999 SCT050 BKN080 01/M02 Q1024 NOSIG

Decode

TAF

Not found

Departure Runways

ID Width Length Bearing (true) Bearing (mag) Surface Threshold Offset Overrun Length
14 98 ft / 30 m 5,677 ft / 1,730 m 140.23° 138.15° Asphalt 656 ft / 200 m 0 ft / 0 m
14L 98 ft / 30 m 2,125 ft / 648 m 140.01° 137.93° Grass 0 ft / 0 m 0 ft / 0 m
14R 98 ft / 30 m 2,123 ft / 647 m 140.14° 138.06° Grass 0 ft / 0 m 0 ft / 0 m
32 98 ft / 30 m 5,677 ft / 1,730 m 320.24° 318.16° Asphalt 0 ft / 0 m 0 ft / 0 m
32L 98 ft / 30 m 2,123 ft / 647 m 320.14° 318.06° Grass 0 ft / 0 m 0 ft / 0 m
32R 98 ft / 30 m 2,125 ft / 648 m 320.01° 317.93° Grass 0 ft / 0 m 0 ft / 0 m

LZIB

Details ICAO LZIB (BTS)
Name Bratislava/M.R. Stefanik
Region Slovakia
Timezone Europe/Bratislava (UTC+1.0)
Stats Elevation 436 ft / 133 m (AMSL)
Location 48.168314° 17.215597°
Runways 2
Magnetic Variation 4.405° E

METAR

LZIB 171330Z 31009KT 9999 SCT032 SCT044 BKN065 05/M02 Q1019 NOSIG

Decode

TAF

Not found

Destination Runways

ID Width Length Bearing (true) Bearing (mag) Surface Threshold Offset Overrun Length
04 197 ft / 60 m 9,540 ft / 2,908 m 43.80° 39.39° Concrete 0 ft / 0 m 7 ft / 2 m
13 148 ft / 45 m 9,688 ft / 2,953 m 134.02° 129.61° Concrete 0 ft / 0 m 98 ft / 30 m
22 197 ft / 60 m 9,540 ft / 2,908 m 223.82° 219.41° Concrete 0 ft / 0 m 49 ft / 15 m
31 148 ft / 45 m 9,688 ft / 2,953 m 314.04° 309.63° Concrete 0 ft / 0 m 810 ft / 247 m

Approach Navaids

Runway Type Ident Frequency Range Bearing (true) Bearing (mag) Slope Elevation
22 Glidescope OKR 108.30 MHz 10 nm / 19 km 223.83° 219.42° 3.00° 436 ft / 133 m (AMSL)
22 DME OKR 108.30 MHz 25 nm / 46 km - - - 436 ft / 133 m (AMSL)
31 Glidescope OB 110.70 MHz 10 nm / 19 km 313.99° 309.58° 3.00° 433 ft / 132 m (AMSL)
31 DME OB 110.70 MHz 25 nm / 46 km - - - 433 ft / 132 m (AMSL)